DRRN/NIM METAR and TAF weather

Enter ICAO airport designator
Station Type Date Time Source
DRRN METAR 2021/05/15 22:00 UTC NOAA

DRRN 152200Z 18006KT 9999 TS FEW040CB 35/12 Q1009 NOSIG


Station Type Date Time Source
DRRN Decoded METAR 2021/05/15 22:00 UTC NOAA

Niamey-Aero, Niger (DRRN) 13-29N 002-10E 227M
May 15, 2021 - 06:00 PM EDT / 2021.05.15 2200 UTC
Wind: from the S (180 degrees) at 7 MPH (6 KT):0
Visibility: greater than 7 mile(s):0
Sky conditions: mostly clear
Weather: thunder; Cumulonimbus clouds observed
Temperature: 95 F (35 C)
Dew Point: 53 F (12 C)
Relative Humidity: 24%
Pressure (altimeter): 29.80 in. Hg (1009 hPa)
ob: DRRN 152200Z 18006KT 9999 TS FEW040CB 35/12 Q1009 NOSIG
cycle: 22

Station Type Date Time Source
DRRN TAF 2021/05/15 18:21 UTC NOAA

TAF DRRN 151700Z 1518/1624 32020KT 1400 BLDU FEW033 FEW040CB
BECMG 1518/1520 06010KT 3000 DU
FM152000 16008KT 6000 NSC

Example: see airport list